Time;durP1;ratioP1;P1;durP2;ratioP2;P2;SDS_P1;SDS_P2;PMS_P1;PMS_P2;Temp;Humidity;BMP_temperature;BMP_pressure;BME280_temperature;BME280_humidity;BME280_pressure;Samples;Min_cycle;Max_cycle;Signal;HPM_P1;HPM_P2
2023/10/30 00:00:23;;;;;;;1.50;1.40;;;;;;;12.35;100.00;97075.66;5072446;28;20225;-74
2023/10/30 00:02:49;;;;;;;1.60;1.50;;;;;;;12.33;100.00;97071.63;5072800;28;20208;-74
2023/10/30 00:05:16;;;;;;;1.70;1.60;;;;;;;12.28;100.00;97085.72;5074506;28;20557;-74
2023/10/30 00:07:42;;;;;;;1.70;1.60;;;;;;;12.41;100.00;97066.66;5076240;28;20221;-74
2023/10/30 00:10:09;;;;;;;1.80;1.67;;;;;;;12.33;100.00;97072.44;5076270;28;20236;-75
2023/10/30 00:12:36;;;;;;;1.50;1.40;;;;;;;12.31;100.00;97092.41;5072567;28;20678;-74
2023/10/30 00:15:03;;;;;;;2.73;1.73;;;;;;;12.50;100.00;97073.13;5069780;28;20205;-74
2023/10/30 00:17:31;;;;;;;2.03;1.83;;;;;;;12.40;100.00;97073.06;5075291;28;20315;-74
2023/10/30 00:19:57;;;;;;;2.43;1.70;;;;;;;12.33;100.00;97069.78;5075415;28;20232;-74
2023/10/30 00:22:24;;;;;;;2.33;2.00;;;;;;;12.33;100.00;97071.63;5074949;28;20204;-74
2023/10/30 00:24:50;;;;;;;4.13;2.40;;;;;;;12.32;100.00;97060.19;5073842;28;20207;-74
2023/10/30 00:27:17;;;;;;;2.70;2.10;;;;;;;12.30;100.00;97072.16;5075204;28;20204;-74
2023/10/30 00:29:43;;;;;;;2.10;1.90;;;;;;;12.35;100.00;97072.97;5066814;28;20205;-74
2023/10/30 00:32:10;;;;;;;3.30;2.50;;;;;;;12.32;100.00;97078.03;5073612;28;20199;-74
2023/10/30 00:34:36;;;;;;;2.53;2.10;;;;;;;12.33;100.00;97084.94;5067780;28;20216;-74
2023/10/30 00:37:03;;;;;;;3.03;2.00;;;;;;;12.36;100.00;97092.44;5071542;28;20208;-74
2023/10/30 00:39:32;;;;;;;2.20;2.00;;;;;;;12.39;100.00;97097.28;5075704;28;20201;-74
2023/10/30 00:42:00;;;;;;;2.80;2.03;;;;;;;12.33;100.00;97075.09;5075809;28;20236;-74
2023/10/30 00:44:27;;;;;;;2.03;1.80;;;;;;;12.26;100.00;97095.81;5075330;28;20265;-74
2023/10/30 00:46:54;;;;;;;2.30;2.10;;;;;;;12.32;100.00;97102.00;5075333;28;20736;-74
2023/10/30 00:49:21;;;;;;;2.93;1.70;;;;;;;12.36;100.00;97103.94;5075219;28;20786;-74
2023/10/30 00:51:47;;;;;;;2.03;1.70;;;;;;;12.38;100.00;97106.34;5075480;28;20195;-74
2023/10/30 00:54:13;;;;;;;3.00;1.87;;;;;;;12.32;100.00;97113.47;5074903;28;20219;-74
2023/10/30 00:56:40;;;;;;;2.27;1.90;;;;;;;12.32;100.00;97118.00;5075406;28;20204;-74
2023/10/30 00:59:07;;;;;;;2.20;2.00;;;;;;;12.31;100.00;97121.72;5075247;28;20230;-74
2023/10/30 01:01:33;;;;;;;2.40;2.20;;;;;;;12.29;100.00;97113.97;5074876;28;20228;-74
2023/10/30 01:03:59;;;;;;;2.20;2.00;;;;;;;12.37;100.00;97123.38;5075283;28;20210;-74
2023/10/30 01:06:26;;;;;;;2.13;2.00;;;;;;;12.29;100.00;97142.50;5075087;28;20215;-74
2023/10/30 01:08:52;;;;;;;2.07;1.90;;;;;;;12.28;100.00;97133.69;5075251;28;20220;-75
2023/10/30 01:11:18;;;;;;;2.13;1.90;;;;;;;12.29;100.00;97135.28;5075028;28;20265;-74
2023/10/30 01:13:45;;;;;;;2.57;2.37;;;;;;;12.33;100.00;97123.06;5075128;28;20201;-74
2023/10/30 01:16:11;;;;;;;2.30;2.10;;;;;;;12.32;100.00;97110.81;5074408;28;20204;-74
2023/10/30 01:18:38;;;;;;;2.80;2.13;;;;;;;12.32;100.00;97100.16;5074944;28;20247;-74
2023/10/30 01:21:20;;;;;;;2.30;2.10;;;;;;;12.34;100.00;97111.34;5074920;28;20233;-75
2023/10/30 01:23:46;;;;;;;2.83;1.90;;;;;;;12.39;100.00;97114.06;5074623;28;20239;-74
2023/10/30 01:26:12;;;;;;;2.50;2.30;;;;;;;12.31;100.00;97113.72;5074887;28;20201;-74
2023/10/30 01:28:39;;;;;;;2.67;2.40;;;;;;;12.31;100.00;97122.53;5074540;28;20239;-74
2023/10/30 01:31:05;;;;;;;3.23;2.77;;;;;;;12.28;100.00;97117.69;5074861;28;20217;-74
2023/10/30 01:33:32;;;;;;;2.27;2.17;;;;;;;12.31;100.00;97122.53;5074654;28;20212;-74
2023/10/30 01:35:58;;;;;;;2.67;2.30;;;;;;;12.32;100.00;97128.66;5074647;28;20222;-74
2023/10/30 01:38:25;;;;;;;2.60;2.37;;;;;;;12.28;100.00;97132.88;5074212;28;20568;-74
2023/10/30 01:40:52;;;;;;;2.80;2.17;;;;;;;12.39;100.00;97140.72;5074125;28;20224;-75
2023/10/30 01:43:32;;;;;;;2.67;2.40;;;;;;;12.35;100.00;97125.50;5074180;28;20691;-74
2023/10/30 01:45:58;;;;;;;2.33;2.13;;;;;;;12.40;100.00;97137.03;5073842;28;20674;-74
2023/10/30 01:48:26;;;;;;;4.53;2.40;;;;;;;12.36;100.00;97127.91;5074293;28;20224;-74
2023/10/30 01:50:53;;;;;;;2.27;2.10;;;;;;;12.36;100.00;97121.78;5074252;28;20205;-74
2023/10/30 01:53:21;;;;;;;2.53;2.10;;;;;;;12.40;100.00;97126.34;5072891;28;20582;-74
2023/10/30 01:55:50;;;;;;;2.20;1.80;;;;;;;12.41;100.00;97132.47;5074236;28;20205;-74
2023/10/30 01:58:17;;;;;;;2.60;2.40;;;;;;;12.39;100.00;97130.06;5072512;28;20246;-74
2023/10/30 02:00:45;;;;;;;3.80;2.50;;;;;;;12.44;100.00;97129.31;5073843;28;20224;-74
2023/10/30 02:03:11;;;;;;;3.07;2.33;;;;;;;12.47;100.00;97132.28;5073910;28;20204;-74
2023/10/30 02:05:37;;;;;;;2.67;2.43;;;;;;;12.45;100.00;97125.59;5074126;28;20236;-74
2023/10/30 02:08:04;;;;;;;3.20;2.50;;;;;;;12.42;100.00;97124.22;5073990;28;20345;-74
2023/10/30 02:10:32;;;;;;;3.40;3.10;;;;;;;12.38;100.00;97120.47;5074002;28;20201;-74
2023/10/30 02:12:59;;;;;;;6.60;3.23;;;;;;;12.33;100.00;97115.09;5073471;28;20292;-74
2023/10/30 02:15:25;;;;;;;4.83;3.50;;;;;;;12.22;100.00;97112.56;5073759;28;20223;-74
2023/10/30 02:17:51;;;;;;;3.57;3.07;;;;;;;12.22;100.00;97102.72;5073667;28;20224;-74
2023/10/30 02:20:18;;;;;;;3.63;3.23;;;;;;;12.15;100.00;97103.97;5073207;28;20748;-74
2023/10/30 02:22:44;;;;;;;3.83;2.80;;;;;;;12.13;100.00;97096.25;5073325;28;20208;-74
2023/10/30 02:25:10;;;;;;;3.07;2.60;;;;;;;12.10;100.00;97102.06;5073315;28;20738;-74
2023/10/30 02:27:37;;;;;;;4.70;2.60;;;;;;;12.07;100.00;97107.09;5072623;28;20228;-74
2023/10/30 02:30:03;;;;;;;3.23;2.40;;;;;;;12.08;100.00;97106.81;5073173;28;20226;-74
2023/10/30 02:32:30;;;;;;;2.50;2.30;;;;;;;12.11;100.00;97111.66;5073503;28;20555;-74
2023/10/30 02:34:56;;;;;;;2.40;2.10;;;;;;;12.13;100.00;97106.09;5073245;28;20205;-74
2023/10/30 02:37:22;;;;;;;2.60;2.40;;;;;;;12.09;100.00;97100.47;5073263;28;20232;-74
2023/10/30 02:39:48;;;;;;;2.30;2.10;;;;;;;12.12;100.00;97094.63;5071617;28;20307;-74
2023/10/30 02:42:15;;;;;;;3.07;1.93;;;;;;;12.15;100.00;97099.44;5056488;28;20227;-74
2023/10/30 02:44:43;;;;;;;2.23;2.03;;;;;;;12.11;100.00;97093.00;5072569;28;20214;-74
2023/10/30 02:47:09;;;;;;;2.00;1.80;;;;;;;12.02;100.00;97091.06;5072592;28;20283;-74
2023/10/30 02:49:36;;;;;;;4.20;2.17;;;;;;;11.98;100.00;97088.09;5071699;28;20208;-74
2023/10/30 02:52:03;;;;;;;2.87;1.90;;;;;;;11.94;100.00;97089.63;5072679;28;20207;-74
2023/10/30 02:54:29;;;;;;;2.27;1.70;;;;;;;11.90;100.00;97087.75;5070379;28;20211;-74
2023/10/30 02:56:55;;;;;;;2.07;1.87;;;;;;;11.89;100.00;97086.13;5071848;28;20227;-74
2023/10/30 02:59:22;;;;;;;2.27;1.90;;;;;;;11.87;100.00;97077.56;5071713;28;20221;-74
2023/10/30 03:01:48;;;;;;;2.87;1.90;;;;;;;11.86;100.00;97078.63;5072672;28;20231;-74
2023/10/30 03:04:16;;;;;;;2.07;1.83;;;;;;;11.90;100.00;97079.75;5060055;28;20218;-74
2023/10/30 03:06:43;;;;;;;2.17;2.00;;;;;;;11.93;100.00;97085.38;5073033;28;20237;-74
2023/10/30 03:09:09;;;;;;;2.97;2.20;;;;;;;11.94;100.00;97092.28;5062778;28;20224;-74
2023/10/30 03:11:35;;;;;;;2.30;2.00;;;;;;;12.01;100.00;97078.78;5066873;28;20204;-74
2023/10/30 03:14:02;;;;;;;2.43;1.93;;;;;;;12.01;100.00;97090.25;5073021;28;20200;-74
2023/10/30 03:16:28;;;;;;;2.23;1.93;;;;;;;12.03;100.00;97087.34;5072951;28;20212;-74
2023/10/30 03:18:55;;;;;;;3.20;2.00;;;;;;;12.04;100.00;97083.63;5072840;28;20226;-74
2023/10/30 03:21:21;;;;;;;3.63;2.17;;;;;;;12.03;100.00;97093.47;5072790;28;20227;-74
2023/10/30 03:23:47;;;;;;;1.97;1.87;;;;;;;12.07;100.00;97099.91;5073169;28;20288;-74
2023/10/30 03:26:14;;;;;;;2.67;1.80;;;;;;;12.06;100.00;97090.31;5073153;28;20227;-74
2023/10/30 03:28:40;;;;;;;2.40;1.90;;;;;;;12.06;100.00;97079.66;5072944;28;20247;-74
2023/10/30 03:31:07;;;;;;;2.30;2.10;;;;;;;11.97;100.00;97080.34;5073008;28;20197;-74
2023/10/30 03:33:34;;;;;;;3.23;2.30;;;;;;;11.92;100.00;97070.44;5072693;28;20659;-74
2023/10/30 03:36:00;;;;;;;2.60;2.20;;;;;;;11.97;100.00;97073.16;5072717;28;20678;-74
2023/10/30 03:38:26;;;;;;;2.20;1.97;;;;;;;11.94;100.00;97064.88;5072708;28;20593;-74
2023/10/30 03:40:53;;;;;;;2.43;2.13;;;;;;;11.93;100.00;97066.72;5075718;28;20225;-74
2023/10/30 03:43:19;;;;;;;2.17;2.00;;;;;;;11.89;100.00;97051.50;5076589;28;20211;-74
2023/10/30 03:45:45;;;;;;;2.27;2.00;;;;;;;11.88;100.00;97064.00;5076208;28;20205;-74
2023/10/30 03:48:12;;;;;;;2.17;2.00;;;;;;;11.84;100.00;97064.78;5076261;28;20227;-74
2023/10/30 03:50:38;;;;;;;2.10;1.90;;;;;;;11.79;100.00;97051.38;5076414;28;20209;-74
2023/10/30 03:53:05;;;;;;;2.33;2.00;;;;;;;11.82;100.00;97061.53;5076076;28;20214;-74
2023/10/30 03:55:31;;;;;;;2.00;1.90;;;;;;;11.80;100.00;97064.44;5076457;28;20208;-74
2023/10/30 03:57:57;;;;;;;2.37;1.57;;;;;;;11.78;100.00;97047.94;5076222;28;20224;-74
2023/10/30 04:00:24;;;;;;;2.67;2.13;;;;;;;11.78;100.00;97042.63;5076012;28;20215;-74
2023/10/30 04:02:51;;;;;;;2.27;2.10;;;;;;;11.75;100.00;97031.66;5075954;28;20556;-74
2023/10/30 04:05:17;;;;;;;6.07;1.90;;;;;;;11.71;100.00;97038.53;5074669;28;20562;-74
2023/10/30 04:07:43;;;;;;;2.13;1.93;;;;;;;11.68;100.00;97039.03;5071920;28;20668;-74
2023/10/30 04:10:10;;;;;;;2.87;2.20;;;;;;;11.63;100.00;97031.81;5067609;28;20208;-74
2023/10/30 04:12:36;;;;;;;2.33;2.10;;;;;;;11.57;100.00;97029.31;5076795;28;20200;-74
2023/10/30 04:15:03;;;;;;;3.43;2.20;;;;;;;11.48;100.00;97031.59;5075926;28;20207;-74
2023/10/30 04:17:29;;;;;;;2.03;1.93;;;;;;;11.43;100.00;97033.41;5075909;28;20220;-74
2023/10/30 04:19:55;;;;;;;2.80;1.90;;;;;;;11.39;100.00;97033.09;5075592;28;20220;-74
2023/10/30 04:22:22;;;;;;;2.00;1.80;;;;;;;11.35;100.00;97042.59;5075680;28;20231;-74
2023/10/30 04:24:48;;;;;;;2.43;2.00;;;;;;;11.40;100.00;97040.00;5075927;28;20211;-74
2023/10/30 04:27:15;;;;;;;2.20;2.00;;;;;;;11.49;100.00;97043.06;5075387;28;20214;-74
2023/10/30 04:29:41;;;;;;;2.60;2.40;;;;;;;11.52;100.00;97030.03;5075423;28;20211;-74
2023/10/30 04:32:08;;;;;;;2.73;2.30;;;;;;;11.45;100.00;97032.09;5075296;28;20667;-75
2023/10/30 04:34:34;;;;;;;4.10;2.17;;;;;;;11.45;100.00;97031.28;5075164;28;20674;-74
2023/10/30 04:37:00;;;;;;;2.43;2.23;;;;;;;11.45;100.00;97028.63;5074916;28;20675;-74
2023/10/30 04:39:27;;;;;;;3.97;2.70;;;;;;;11.42;100.00;97021.94;5075147;28;20309;-74
2023/10/30 04:41:54;;;;;;;2.30;2.10;;;;;;;11.41;100.00;97015.03;5074926;28;20223;-74
2023/10/30 04:44:21;;;;;;;3.40;2.23;;;;;;;11.44;100.00;97009.19;5074918;28;20211;-74
2023/10/30 04:46:47;;;;;;;3.33;2.47;;;;;;;11.43;100.00;97020.88;5074690;28;20227;-74
2023/10/30 04:49:13;;;;;;;2.67;2.37;;;;;;;11.40;100.00;97010.72;5075031;28;20228;-74
2023/10/30 04:51:40;;;;;;;2.70;2.07;;;;;;;11.37;100.00;97024.56;5074106;28;20207;-74
2023/10/30 04:54:06;;;;;;;4.63;2.50;;;;;;;11.38;100.00;97015.50;5074925;28;20205;-74
2023/10/30 04:56:33;;;;;;;2.97;2.40;;;;;;;11.32;100.00;97025.28;5074776;28;20221;-74
2023/10/30 04:58:59;;;;;;;2.73;2.53;;;;;;;11.35;100.00;97023.97;5074946;28;20234;-74
2023/10/30 05:01:25;;;;;;;2.70;2.07;;;;;;;11.36;100.00;97033.59;5074307;28;20225;-74
2023/10/30 05:03:52;;;;;;;3.80;2.70;;;;;;;11.41;100.00;97035.50;5074453;28;20206;-74
2023/10/30 05:06:18;;;;;;;3.47;2.53;;;;;;;11.43;100.00;97033.41;5074112;28;20206;-74
2023/10/30 05:08:45;;;;;;;4.23;2.67;;;;;;;11.43;100.00;97042.19;5073172;28;20230;-74
2023/10/30 05:11:11;;;;;;;5.83;2.73;;;;;;;11.46;100.00;97038.22;5071074;28;20206;-74
2023/10/30 05:13:38;;;;;;;3.17;2.13;;;;;;;11.41;100.00;97044.28;5073800;28;20221;-75
2023/10/30 05:16:04;;;;;;;3.70;2.50;;;;;;;11.46;100.00;97043.53;5073354;28;20206;-74
2023/10/30 05:18:31;;;;;;;2.77;2.50;;;;;;;11.45;100.00;97036.63;5072944;28;20607;-74
2023/10/30 05:20:57;;;;;;;2.70;2.17;;;;;;;11.44;100.00;97035.78;5072876;28;20629;-74
2023/10/30 05:23:24;;;;;;;2.10;1.80;;;;;;;11.43;100.00;97028.88;5073525;28;20205;-74
2023/10/30 05:25:50;;;;;;;2.60;1.60;;;;;;;11.38;100.00;97020.84;5072618;28;20218;-74
2023/10/30 05:28:17;;;;;;;2.70;2.27;;;;;;;11.38;100.00;97006.72;5054388;28;20545;-74
2023/10/30 05:30:43;;;;;;;3.00;1.70;;;;;;;11.31;100.00;96996.28;5064732;28;20548;-74
2023/10/30 05:33:09;;;;;;;1.53;1.43;;;;;;;11.27;100.00;96999.69;5053860;28;20248;-74
2023/10/30 05:35:36;;;;;;;2.13;1.60;;;;;;;11.25;100.00;96999.13;5067714;28;20203;-74
2023/10/30 05:38:04;;;;;;;2.33;1.50;;;;;;;11.21;100.00;96998.81;5073022;28;20233;-74
2023/10/30 05:40:30;;;;;;;2.47;1.43;;;;;;;11.18;100.00;97000.13;5071948;28;20394;-74
2023/10/30 05:42:56;;;;;;;3.17;1.60;;;;;;;11.18;100.00;97004.66;5073035;28;20232;-75
2023/10/30 05:45:23;;;;;;;1.43;1.33;;;;;;;11.18;100.00;96998.50;5073076;28;20207;-74
2023/10/30 05:47:49;;;;;;;1.73;1.50;;;;;;;11.23;100.00;96987.94;5058553;28;20559;-74
2023/10/30 05:50:16;;;;;;;2.47;1.60;;;;;;;11.22;100.00;96991.66;5053106;28;20656;-75
2023/10/30 05:52:42;;;;;;;1.70;1.60;;;;;;;11.10;100.00;96997.09;5053300;28;20214;-74
2023/10/30 05:55:09;;;;;;;1.50;1.40;;;;;;;11.07;100.00;96990.41;5053238;28;20207;-74
2023/10/30 05:57:37;;;;;;;2.10;1.90;;;;;;;11.05;100.00;96989.06;5053571;28;20236;-74
2023/10/30 06:00:05;;;;;;;2.40;2.03;;;;;;;11.07;100.00;96991.47;5054598;28;20237;-75
2023/10/30 06:02:31;;;;;;;2.23;2.03;;;;;;;11.04;100.00;96984.78;5074058;28;20215;-74
2023/10/30 06:04:58;;;;;;;3.83;2.00;;;;;;;10.94;100.00;96972.16;5073304;28;20575;-74
2023/10/30 06:07:24;;;;;;;4.20;2.13;;;;;;;10.96;100.00;96978.03;5072829;28;20710;-74
2023/10/30 06:09:51;;;;;;;4.43;2.50;;;;;;;10.98;100.00;96969.81;5072863;28;20219;-74
2023/10/30 06:12:17;;;;;;;3.73;2.67;;;;;;;10.98;100.00;96977.00;5073511;28;20201;-74
2023/10/30 06:14:44;;;;;;;4.93;3.00;;;;;;;10.94;100.00;96974.81;5073330;28;20204;-74
2023/10/30 06:17:10;;;;;;;4.90;3.03;;;;;;;10.96;100.00;96969.25;5072462;28;20211;-74
2023/10/30 06:19:37;;;;;;;4.03;3.27;;;;;;;10.96;100.00;96969.25;5073004;28;20205;-74
2023/10/30 06:22:03;;;;;;;3.67;3.10;;;;;;;10.98;100.00;96967.97;5072963;28;20233;-74
2023/10/30 06:24:31;;;;;;;5.37;3.40;;;;;;;11.01;100.00;96966.66;5072726;28;20203;-74
2023/10/30 06:26:57;;;;;;;4.83;3.47;;;;;;;11.03;100.00;96967.19;5072055;28;20257;-74
2023/10/30 06:29:23;;;;;;;5.60;3.70;;;;;;;11.06;100.00;96964.06;5072320;28;20214;-74
2023/10/30 06:31:50;;;;;;;5.60;3.70;;;;;;;11.04;100.00;96966.19;5072854;28;20202;-74
2023/10/30 06:34:16;;;;;;;7.13;4.47;;;;;;;11.06;100.00;96964.06;5071129;28;20211;-74
2023/10/30 06:36:42;;;;;;;4.47;4.03;;;;;;;11.06;100.00;96974.69;5070840;28;20249;-74
2023/10/30 06:39:09;;;;;;;4.97;4.47;;;;;;;11.10;100.00;96970.50;5060807;28;20661;-74
2023/10/30 06:41:35;;;;;;;7.03;3.83;;;;;;;11.12;100.00;96978.22;5072026;28;20217;-75
2023/10/30 06:44:01;;;;;;;6.03;4.20;;;;;;;11.11;100.00;96980.06;5057586;28;20219;-75
2023/10/30 06:46:28;;;;;;;4.17;3.77;;;;;;;11.12;100.00;96989.66;5052647;28;20210;-74
2023/10/30 06:48:54;;;;;;;5.30;4.00;;;;;;;11.18;100.00;96990.53;5052727;28;20227;-74
2023/10/30 06:51:20;;;;;;;4.83;3.70;;;;;;;11.19;100.00;97003.59;5062300;28;20214;-75
2023/10/30 06:53:47;;;;;;;4.13;3.73;;;;;;;11.16;100.00;96996.09;5071555;28;20207;-75
2023/10/30 06:56:13;;;;;;;6.53;3.53;;;;;;;11.17;100.00;96987.06;5072007;28;20206;-75
2023/10/30 06:58:39;;;;;;;5.23;3.20;;;;;;;11.29;100.00;96977.09;5072854;28;20228;-75
2023/10/30 07:01:06;;;;;;;3.77;3.13;;;;;;;11.41;100.00;96985.75;5070900;28;20215;-75
2023/10/30 07:03:33;;;;;;;5.27;3.30;;;;;;;11.43;100.00;96980.97;5072502;28;20207;-74
2023/10/30 07:05:59;;;;;;;4.37;3.63;;;;;;;11.52;100.00;96982.13;5073160;28;20267;-75
2023/10/30 07:08:26;;;;;;;3.60;3.30;;;;;;;11.58;100.00;96983.00;5072476;28;20225;-74
2023/10/30 07:10:52;;;;;;;3.53;3.23;;;;;;;11.59;100.00;96984.59;5072481;28;20569;-75
2023/10/30 07:13:18;;;;;;;4.13;3.47;;;;;;;11.63;100.00;96994.53;5071791;28;20251;-74
2023/10/30 07:15:45;;;;;;;4.37;3.77;;;;;;;11.65;100.00;96983.63;5073498;28;20207;-74
2023/10/30 07:18:11;;;;;;;4.40;3.70;;;;;;;11.67;100.00;96989.50;5076208;28;20234;-74
2023/10/30 07:20:37;;;;;;;3.83;3.20;;;;;;;11.63;100.00;97004.38;5075945;28;20211;-74
2023/10/30 07:23:04;;;;;;;3.60;3.30;;;;;;;11.70;100.00;97011.09;5076401;28;20237;-74
2023/10/30 07:25:31;;;;;;;4.33;3.93;;;;;;;11.70;100.00;97005.00;5077078;28;20622;-73
2023/10/30 07:27:57;;;;;;;5.20;3.60;;;;;;;11.78;100.00;97005.34;5075787;28;20233;-73
2023/10/30 07:30:24;;;;;;;6.70;4.00;;;;;;;11.82;100.00;97005.63;5075375;28;20203;-73
2023/10/30 07:32:50;;;;;;;5.50;4.00;;;;;;;11.87;100.00;97008.34;5076173;28;20241;-73
2023/10/30 07:35:16;;;;;;;5.20;3.67;;;;;;;11.91;100.00;96996.13;5074966;28;20207;-73
2023/10/30 07:37:43;;;;;;;4.67;3.43;;;;;;;11.89;100.00;97001.69;5075748;28;20224;-72
2023/10/30 07:40:10;;;;;;;3.53;3.20;;;;;;;11.93;100.00;97002.81;5075428;28;20212;-73
2023/10/30 07:42:37;;;;;;;5.13;3.30;;;;;;;11.93;100.00;96992.16;5075976;28;20227;-73
2023/10/30 07:45:05;;;;;;;4.53;3.57;;;;;;;12.03;100.00;96991.44;5075828;28;20246;-73
2023/10/30 07:47:32;;;;;;;5.77;4.27;;;;;;;12.14;100.00;96993.94;5075593;28;20317;-73
2023/10/30 07:50:00;;;;;;;6.80;4.00;;;;;;;12.21;100.00;96985.75;5075764;28;20207;-74
2023/10/30 07:52:26;;;;;;;7.50;4.10;;;;;;;12.32;100.00;96988.22;5067795;28;20587;-73
2023/10/30 07:54:52;;;;;;;7.17;4.67;;;;;;;12.22;100.00;96982.81;5063050;28;20682;-73
2023/10/30 07:57:19;;;;;;;8.10;5.13;;;;;;;12.19;100.00;96990.50;5069265;28;20754;-73
2023/10/30 07:59:47;;;;;;;5.10;4.37;;;;;;;12.20;100.00;96979.59;5073903;28;20691;-73
2023/10/30 08:02:13;;;;;;;9.63;5.27;;;;;;;12.24;100.00;96983.34;5075062;28;20262;-74
2023/10/30 08:04:40;;;;;;;5.23;4.47;;;;;;;12.23;100.00;96980.94;5075727;28;20290;-74
2023/10/30 08:07:06;;;;;;;8.20;4.93;;;;;;;12.23;100.00;96978.28;5075231;28;20207;-74
2023/10/30 08:09:32;;;;;;;5.80;5.00;;;;;;;12.21;100.00;96962.53;5074932;28;20206;-74
2023/10/30 08:11:59;;;;;;;9.27;5.30;;;;;;;12.21;100.00;96972.41;5074939;28;20257;-74
2023/10/30 08:14:25;;;;;;;8.87;5.10;;;;;;;12.32;100.00;96974.91;5074925;28;20684;-74
2023/10/30 08:16:51;;;;;;;7.60;5.47;;;;;;;12.41;100.00;96960.03;5074757;28;20213;-74
2023/10/30 08:19:18;;;;;;;6.33;5.00;;;;;;;12.44;100.00;96961.38;5075242;28;20292;-74
2023/10/30 08:21:44;;;;;;;7.77;5.07;;;;;;;12.39;100.00;96962.16;5075044;28;20212;-74
2023/10/30 08:24:11;;;;;;;10.80;5.57;;;;;;;12.50;100.00;96968.34;5075406;28;20211;-74
2023/10/30 08:26:37;;;;;;;6.10;5.50;;;;;;;12.56;100.00;96965.47;5075198;28;20270;-74
2023/10/30 08:29:03;;;;;;;5.97;5.37;;;;;;;12.70;100.00;96961.28;5075147;28;20235;-74
2023/10/30 08:31:30;;;;;;;9.23;5.40;;;;;;;12.68;100.00;96958.06;5075310;28;20204;-74
2023/10/30 08:34:00;;;;;;;7.67;5.00;;;;;;;12.76;100.00;96957.59;5075611;28;20204;-73
2023/10/30 08:36:27;;;;;;;5.13;4.63;;;;;;;12.89;100.00;96954.44;5076661;28;20192;-73
2023/10/30 08:38:53;;;;;;;7.67;4.70;;;;;;;12.99;100.00;96951.88;5075879;28;20224;-73
2023/10/30 08:41:19;;;;;;;4.83;4.43;;;;;;;12.99;100.00;96951.03;5074931;28;20296;-73
2023/10/30 08:43:46;;;;;;;4.70;4.20;;;;;;;13.00;100.00;96956.13;5075205;28;20224;-73
2023/10/30 08:46:19;;;;;;;5.13;4.27;;;;;;;13.16;100.00;96959.66;5075126;28;20287;-73
2023/10/30 08:48:46;;;;;;;5.20;4.70;;;;;;;13.18;100.00;96961.00;5075298;28;20290;-73
2023/10/30 08:51:13;;;;;;;4.60;4.20;;;;;;;13.26;100.00;96949.84;5075204;28;20212;-73
2023/10/30 08:53:39;;;;;;;4.60;4.20;;;;;;;13.37;100.00;96947.97;5075142;28;20204;-73
2023/10/30 08:56:06;;;;;;;6.30;3.83;;;;;;;13.39;100.00;96956.53;5074844;28;20204;-73
2023/10/30 08:58:32;;;;;;;5.17;3.80;;;;;;;13.47;100.00;96946.13;5074201;28;20234;-73
2023/10/30 09:00:59;;;;;;;4.07;3.77;;;;;;;13.65;100.00;96950.19;5074338;28;20647;-73
2023/10/30 09:03:25;;;;;;;3.77;3.47;;;;;;;13.61;100.00;96946.44;5074706;28;20224;-73
2023/10/30 09:05:52;;;;;;;5.00;3.70;;;;;;;13.62;100.00;96946.16;5074778;28;20209;-73
2023/10/30 09:08:18;;;;;;;4.40;4.00;;;;;;;13.66;100.00;96941.09;5074798;28;20227;-73
2023/10/30 09:10:45;;;;;;;3.70;3.40;;;;;;;13.77;100.00;96942.72;5074474;28;20210;-74
2023/10/30 09:13:11;;;;;;;3.67;3.33;;;;;;;13.74;100.00;96941.38;5074306;28;20200;-74
2023/10/30 09:15:38;;;;;;;4.00;3.40;;;;;;;13.92;100.00;96942.72;5074324;28;20201;-73
2023/10/30 09:18:05;;;;;;;6.07;3.53;;;;;;;13.94;100.00;96935.25;5073831;28;20248;-73
2023/10/30 09:20:31;;;;;;;3.57;3.27;;;;;;;14.11;100.00;96939.25;5074053;28;20571;-74
2023/10/30 09:22:58;;;;;;;4.60;3.33;;;;;;;14.20;100.00;96923.50;5074079;28;20228;-74
2023/10/30 09:25:24;;;;;;;3.73;3.33;;;;;;;14.14;100.00;96928.03;5073890;28;20238;-74
2023/10/30 09:27:51;;;;;;;3.77;3.00;;;;;;;14.28;100.00;96928.31;5073735;28;20224;-74
2023/10/30 09:30:18;;;;;;;3.43;2.90;;;;;;;14.33;100.00;96931.00;5073592;28;20231;-74
2023/10/30 09:32:44;;;;;;;2.73;2.53;;;;;;;14.42;100.00;96922.16;5074301;28;20200;-74
2023/10/30 09:35:11;;;;;;;2.93;2.60;;;;;;;14.44;100.00;96922.69;5073469;28;20701;-74
2023/10/30 09:37:39;;;;;;;3.10;2.53;;;;;;;14.37;100.00;96916.00;5072773;28;20590;-74
2023/10/30 09:40:06;;;;;;;2.73;2.53;;;;;;;14.48;100.00;96906.91;5073841;28;20213;-74
2023/10/30 09:42:35;;;;;;;2.60;2.40;;;;;;;14.49;100.00;96901.28;5074185;28;20224;-74
2023/10/30 09:45:02;;;;;;;3.27;2.57;;;;;;;14.50;100.00;96908.22;5073939;28;20314;-74
2023/10/30 09:47:29;;;;;;;3.00;2.70;;;;;;;14.50;100.00;96904.75;5056556;28;20256;-74
2023/10/30 09:49:57;;;;;;;2.63;2.43;;;;;;;14.55;100.00;96905.53;5073790;28;20204;-74
2023/10/30 09:52:26;;;;;;;2.50;2.30;;;;;;;14.58;100.00;96913.03;5073481;28;20685;-74
2023/10/30 09:54:55;;;;;;;2.70;2.30;;;;;;;14.63;100.00;96913.00;5073225;28;20675;-74
2023/10/30 09:57:22;;;;;;;2.70;2.10;;;;;;;14.62;100.00;96906.06;5073553;28;20220;-74
2023/10/30 09:59:53;;;;;;;2.50;2.03;;;;;;;14.61;100.00;96904.44;5073185;28;20214;-74
2023/10/30 10:02:20;;;;;;;3.10;1.97;;;;;;;14.59;100.00;96909.28;5073697;28;20216;-74
2023/10/30 10:04:46;;;;;;;3.87;1.80;;;;;;;14.58;100.00;96905.00;5073399;28;20204;-73
2023/10/30 10:07:13;;;;;;;2.90;1.90;;;;;;;14.71;100.00;96893.75;5073403;28;20244;-73
2023/10/30 10:10:02;;;;;;;2.67;1.80;;;;;;;14.61;100.00;96899.09;5073494;28;20234;-73
2023/10/30 10:12:30;;;;;;;2.07;1.87;;;;;;;14.76;100.00;96887.56;5073965;28;20231;-74
2023/10/30 10:14:56;;;;;;;2.20;1.97;;;;;;;15.01;100.00;96885.56;5073005;28;20667;-74
2023/10/30 10:17:23;;;;;;;1.80;1.70;;;;;;;14.94;100.00;96889.63;5072928;28;20232;-74
2023/10/30 10:19:50;;;;;;;1.90;1.80;;;;;;;14.95;100.00;96875.97;5073152;28;20215;-74
2023/10/30 10:22:29;;;;;;;2.43;2.07;;;;;;;14.92;100.00;96887.22;5072883;28;20235;-74
2023/10/30 10:24:55;;;;;;;5.97;2.63;;;;;;;15.06;100.00;96887.44;5073007;28;20205;-74
2023/10/30 10:27:23;;;;;;;2.50;1.83;;;;;;;15.09;100.00;96878.84;5072784;28;20326;-74
2023/10/30 10:29:54;;;;;;;4.70;2.07;;;;;;;15.12;100.00;96873.75;5072851;28;20207;-74
2023/10/30 10:32:29;;;;;;;3.13;1.83;;;;;;;15.16;100.00;96864.06;5072819;28;20801;-74
2023/10/30 10:35:01;;;;;;;2.27;1.87;;;;;;;15.14;100.00;96850.19;5073173;28;20196;-74
2023/10/30 10:37:28;;;;;;;2.13;2.00;;;;;;;15.07;100.00;96838.97;5073096;28;20221;-74
2023/10/30 10:39:55;;;;;;;2.90;2.03;;;;;;;15.09;100.00;96842.19;5072965;28;20286;-74
2023/10/30 10:42:27;;;;;;;2.53;2.10;;;;;;;15.13;100.00;96827.16;5072843;28;20295;-74
2023/10/30 10:44:55;;;;;;;4.37;1.83;;;;;;;15.18;100.00;96829.00;5072915;28;20250;-74
2023/10/30 10:47:22;;;;;;;3.25;2.30;;;;;;;15.18;100.00;96819.09;5072363;28;20446;-74
2023/10/30 10:49:49;;;;;;;2.93;2.30;;;;;;;15.10;100.00;96817.00;5071807;28;20209;-74
2023/10/30 10:52:18;;;;;;;3.70;1.90;;;;;;;15.10;100.00;96813.53;5072737;28;20682;-74
2023/10/30 10:54:47;;;;;;;5.20;2.10;;;;;;;15.31;100.00;96812.31;5072787;28;20212;-74
2023/10/30 10:57:20;;;;;;;4.87;2.50;;;;;;;15.32;100.00;96813.91;5072445;28;20212;-74
2023/10/30 10:59:48;;;;;;;3.87;2.60;;;;;;;15.32;100.00;96805.88;5072250;28;20197;-74
2023/10/30 11:02:21;;;;;;;2.47;2.27;;;;;;;15.45;100.00;96800.72;5071813;28;20204;-74
2023/10/30 11:04:49;;;;;;;2.67;2.47;;;;;;;15.48;100.00;96805.53;5072463;28;20185;-74
2023/10/30 11:07:23;;;;;;;2.43;2.13;;;;;;;15.28;100.00;96804.84;5071945;28;20212;-74
2023/10/30 11:09:53;;;;;;;4.27;2.30;;;;;;;15.20;100.00;96797.41;5072468;28;20203;-74
2023/10/30 11:12:39;;;;;;;2.67;2.20;;;;;;;15.30;100.00;96792.78;5071896;28;20515;-74
2023/10/30 11:15:15;;;;;;;2.10;1.90;;;;;;;15.18;100.00;96783.50;5072793;28;20199;-74
2023/10/30 11:18:05;;;;;;;2.03;1.83;;;;;;;15.13;100.00;96778.16;5072282;28;20220;-74
2023/10/30 11:20:31;;;;;;;2.93;2.30;;;;;;;15.14;100.00;96767.19;5072139;28;20209;-74
2023/10/30 11:22:58;;;;;;;2.80;2.10;;;;;;;15.17;100.00;96787.25;5072366;28;20225;-74